Time;durP1;ratioP1;P1;durP2;ratioP2;P2;SDS_P1;SDS_P2;PMS_P1;PMS_P2;Temp;Humidity;BMP_temperature;BMP_pressure;BME280_temperature;BME280_humidity;BME280_pressure;Samples;Min_cycle;Max_cycle;Signal;HPM_P1;HPM_P2
2022/11/12 00:00:28;;;;;;;;;42.67;32.67;;;;;11.35;77.51;102612.84;5058063;28;45410;-49
2022/11/12 00:02:53;;;;;;;;;40.00;31.00;;;;;11.36;77.52;102613.69;5058211;28;45962;-52
2022/11/12 00:05:18;;;;;;;;;35.00;32.00;;;;;11.35;77.11;102610.16;5058112;28;45406;-53
2022/11/12 00:07:44;;;;;;;;;33.33;32.33;;;;;11.36;77.39;102611.00;5057852;28;45305;-52
2022/11/12 00:10:09;;;;;;;;;37.00;32.00;;;;;11.23;77.46;102597.69;5057993;28;45407;-51
2022/11/12 00:12:35;;;;;;;;;46.50;36.50;;;;;11.25;77.40;102609.09;5058040;28;45327;-51
2022/11/12 00:15:00;;;;;;;;;55.33;36.33;;;;;11.24;77.32;102605.56;5058185;28;45264;-51
2022/11/12 00:17:25;;;;;;;;;35.33;33.33;;;;;11.27;77.66;102611.66;5057771;28;45497;-50
2022/11/12 00:19:52;;;;;;;;;45.00;35.00;;;;;11.18;77.33;102589.16;5057731;28;45297;-46
2022/11/12 00:22:18;;;;;;;;;41.33;36.67;;;;;11.29;77.55;102612.38;5057124;28;45366;-51
2022/11/12 00:24:43;;;;;;;;;42.33;33.33;;;;;11.27;77.46;102617.84;5057726;28;45315;-49
2022/11/12 00:27:09;;;;;;;;;37.33;30.00;;;;;11.28;77.56;102619.53;5057788;28;45231;-53
2022/11/12 00:29:34;;;;;;;;;43.67;32.33;;;;;11.26;77.46;102617.94;5057425;28;45197;-49
2022/11/12 00:31:59;;;;;;;;;31.00;31.00;;;;;11.20;77.80;102619.19;5057989;28;45434;-53
2022/11/12 00:34:25;;;;;;;;;29.33;25.33;;;;;11.19;77.96;102613.03;5057566;28;45362;-50
2022/11/12 00:36:50;;;;;;;;;42.33;31.00;;;;;11.21;77.63;102613.78;5057458;28;45326;-49
2022/11/12 00:39:15;;;;;;;;;27.67;27.67;;;;;11.23;77.67;102614.53;5057302;28;45358;-51
2022/11/12 00:41:41;;;;;;;;;41.67;36.33;;;;;11.22;77.61;102609.31;5057417;28;45955;-50
2022/11/12 00:44:06;;;;;;;;;28.67;26.00;;;;;11.19;77.84;102613.03;5057715;28;45397;-51
2022/11/12 00:46:31;;;;;;;;;25.67;23.33;;;;;11.17;77.97;102617.63;5057120;28;45346;-51
2022/11/12 00:48:57;;;;;;;;;38.67;29.67;;;;;11.15;77.80;102614.19;5054355;28;45373;-49
2022/11/12 00:51:22;;;;;;;;;28.33;25.67;;;;;11.08;78.00;102606.72;5056025;28;45461;-49
2022/11/12 00:53:48;;;;;;;;;34.67;28.33;;;;;11.10;78.23;102599.50;5056140;28;45347;-52
2022/11/12 00:56:14;;;;;;;;;35.50;31.00;;;;;11.10;78.07;102597.69;5055710;28;45475;-52
2022/11/12 00:58:39;;;;;;;;;48.33;33.00;;;;;11.10;77.88;102597.69;5055722;28;45371;-50
2022/11/12 01:01:10;;;;;;;;;28.33;27.33;;;;;11.14;77.72;102616.97;5055950;28;45499;-51
2022/11/12 01:03:37;;;;;;;;;37.33;30.67;;;;;11.11;77.94;102594.06;5056311;28;45338;-52
2022/11/12 01:06:17;;;;;;;;;35.33;32.00;;;;;10.97;78.15;102580.84;5055496;28;46380;-53
2022/11/12 01:08:43;;;;;;;;;34.67;32.67;;;;;11.04;77.86;102603.44;5055424;28;45424;-51
2022/11/12 01:11:10;;;;;;;;;46.50;35.00;;;;;11.06;77.82;102605.97;5055701;28;45300;-52
2022/11/12 01:13:36;;;;;;;;;31.33;28.67;;;;;11.03;78.08;102601.72;5055849;28;45388;-51
2022/11/12 01:16:10;;;;;;;;;33.25;30.00;;;;;11.01;77.96;102590.31;5055424;28;46124;-53
2022/11/12 01:18:35;;;;;;;;;38.33;27.33;;;;;11.02;78.38;102592.03;5055664;28;45474;-50
2022/11/12 01:21:06;;;;;;;;;37.00;28.33;;;;;10.98;78.15;102595.84;5055321;28;45332;-47
2022/11/12 01:23:33;;;;;;;;;31.00;26.67;;;;;10.98;77.94;102598.50;5055983;28;45385;-50
2022/11/12 01:26:04;;;;;;;;;26.33;25.00;;;;;10.97;77.89;102586.16;5055309;28;46228;-53
2022/11/12 01:28:29;;;;;;;;;39.67;30.00;;;;;11.01;77.91;102573.50;5055342;28;45334;-50
2022/11/12 01:30:54;;;;;;;;;29.00;25.00;;;;;11.02;77.79;102569.88;5055658;28;45340;-51
2022/11/12 01:33:20;;;;;;;;;30.00;27.33;;;;;11.04;78.05;102582.13;5055179;28;45325;-49
2022/11/12 01:35:45;;;;;;;;;34.00;26.33;;;;;11.03;77.72;102577.75;5055215;28;45990;-50
2022/11/12 01:38:10;;;;;;;;;28.67;26.00;;;;;11.03;77.67;102580.41;5055431;28;45232;-53
2022/11/12 01:40:36;;;;;;;;;34.33;28.67;;;;;11.02;78.04;102570.72;5055633;28;45351;-51
2022/11/12 01:43:01;;;;;;;;;25.67;23.00;;;;;11.01;77.95;102584.16;5055649;28;45396;-52
2022/11/12 01:45:26;;;;;;;;;32.00;27.00;;;;;11.01;77.90;102584.16;5055317;28;45414;-53
2022/11/12 01:47:52;;;;;;;;;38.00;26.00;;;;;10.99;78.13;102585.06;5014744;27;1152079;-53
2022/11/12 01:50:32;;;;;;;;;32.00;24.67;;;;;10.95;78.12;102564.94;5056727;28;45442;-54
2022/11/12 01:53:02;;;;;;;;;28.00;23.67;;;;;10.97;78.23;102563.03;5056855;28;45338;-50
2022/11/12 01:55:31;;;;;;;;;23.00;23.00;;;;;11.01;78.12;102560.19;5056230;28;46172;-52
2022/11/12 01:58:17;;;;;;;;;29.00;27.00;;;;;10.98;77.85;102566.56;5056467;28;45374;-52
2022/11/12 02:00:44;;;;;;;;;30.00;21.67;;;;;10.97;78.23;102573.69;5056605;28;45380;-51
2022/11/12 02:03:19;;;;;;;;;26.67;21.67;;;;;10.96;78.28;102572.00;5056630;28;45411;-50
2022/11/12 02:05:48;;;;;;;;;29.33;26.67;;;;;10.92;78.21;102564.31;5056033;28;47303;-49
2022/11/12 02:08:14;;;;;;;;;27.00;22.33;;;;;10.93;78.66;102569.53;5056358;28;45426;-49
2022/11/12 02:10:40;;;;;;;;;27.67;21.67;;;;;10.60;78.67;102513.25;5056442;28;45367;-52
2022/11/12 02:15:51;;;;;;;;;30.33;20.67;;;;;10.89;78.62;102584.00;5056075;28;45430;-48
2022/11/12 02:18:17;;;;;;;;;27.33;24.67;;;;;10.79;78.73;102584.72;5056196;28;45504;-48
2022/11/12 02:20:42;;;;;;;;;28.33;23.00;;;;;10.67;79.31;102581.09;5056284;28;45461;-50
2022/11/12 02:23:07;;;;;;;;;29.00;26.00;;;;;10.70;79.36;102576.44;5056492;28;45487;-50
2022/11/12 02:25:34;;;;;;;;;30.33;27.00;;;;;10.69;79.24;102573.84;5056045;28;46248;-53
2022/11/12 02:28:01;;;;;;;;;30.67;26.33;;;;;10.65;79.43;102572.34;5055939;28;45367;-48
2022/11/12 02:30:34;;;;;;;;;23.00;22.33;;;;;10.62;79.70;102573.41;5056310;28;45348;-51
2022/11/12 02:33:00;;;;;;;;;28.00;23.00;;;;;10.66;79.27;102568.72;5056240;28;45452;-49
2022/11/12 02:35:25;;;;;;;;;26.00;22.67;;;;;10.67;79.28;102558.00;5054327;28;47395;-52
2022/11/12 02:37:50;;;;;;;;;24.67;20.67;;;;;10.42;78.96;102500.22;5055927;28;45253;-49
2022/11/12 02:40:16;;;;;;;;;28.00;24.33;;;;;10.73;78.91;102559.38;5055905;28;45331;-50
2022/11/12 02:42:41;;;;;;;;;22.00;22.00;;;;;10.75;78.70;102562.81;5056547;28;45273;-51
2022/11/12 02:45:07;;;;;;;;;27.33;20.67;;;;;10.74;78.49;102561.97;5057279;28;46366;-49
2022/11/12 02:47:32;;;;;;;;;28.33;27.00;;;;;10.73;78.52;102551.38;5059175;28;45401;-52
2022/11/12 02:49:57;;;;;;;;;23.33;20.33;;;;;10.71;78.56;102546.19;5059429;28;45486;-54
2022/11/12 02:52:23;;;;;;;;;27.00;22.00;;;;;10.69;78.77;102547.22;5059693;28;45350;-49
2022/11/12 02:54:48;;;;;;;;;36.33;21.67;;;;;10.59;79.24;102548.81;5058980;28;46185;-52
2022/11/12 02:57:13;;;;;;;;;29.00;25.00;;;;;10.59;79.42;102552.31;5059295;28;45395;-49
2022/11/12 02:59:39;;;;;;;;;25.33;22.00;;;;;10.65;79.12;102551.06;5059303;28;45255;-52
2022/11/12 03:02:04;;;;;;;;;24.00;20.33;;;;;10.67;78.65;102549.16;5059245;28;45241;-49
2022/11/12 03:04:30;;;;;;;;;19.67;14.67;;;;;10.66;78.90;102545.66;5058857;28;46164;-49
2022/11/12 03:06:55;;;;;;;;;23.67;19.33;;;;;10.67;78.75;102546.50;5059076;28;45364;-50
2022/11/12 03:09:20;;;;;;;;;23.00;20.33;;;;;10.65;78.60;102551.06;5059127;28;45333;-51
2022/11/12 03:11:46;;;;;;;;;24.00;21.00;;;;;10.61;78.50;102539.75;5059167;28;45416;-53
2022/11/12 03:14:11;;;;;;;;;26.67;18.33;;;;;10.64;78.70;102539.56;5058827;28;45926;-49
2022/11/12 03:16:36;;;;;;;;;20.00;18.00;;;;;10.64;78.75;102539.56;5058706;28;45403;-51
2022/11/12 03:19:02;;;;;;;;;25.67;20.00;;;;;10.64;78.86;102536.03;5059043;28;45357;-52
2022/11/12 03:21:27;;;;;;;;;22.67;21.00;;;;;10.62;78.57;102529.97;5058956;28;45379;-47
2022/11/12 03:23:52;;;;;;;;;20.00;20.00;;;;;10.60;79.06;102527.41;5058821;28;47196;-51
2022/11/12 03:26:18;;;;;;;;;30.00;19.00;;;;;10.62;79.07;102533.50;5058766;28;45271;-53
2022/11/12 03:28:43;;;;;;;;;24.67;20.67;;;;;10.62;78.90;102535.28;5058844;28;45375;-47
2022/11/12 03:31:10;;;;;;;;;26.33;20.00;;;;;10.49;79.12;102517.50;5058635;28;45398;-48
2022/11/12 03:33:36;;;;;;;;;21.00;18.67;;;;;10.52;79.08;102516.44;5058278;28;45387;-50
2022/11/12 03:36:03;;;;;;;;;22.67;22.00;;;;;10.59;79.46;102524.88;5058139;28;45371;-50
2022/11/12 03:38:28;;;;;;;;;26.33;20.67;;;;;10.59;79.09;102524.88;5058697;28;45300;-50
2022/11/12 03:40:53;;;;;;;;;22.00;19.67;;;;;10.61;79.29;102525.59;5058561;28;45351;-51
2022/11/12 03:43:19;;;;;;;;;20.67;16.00;;;;;10.62;79.14;102532.63;5058578;28;45462;-51
2022/11/12 03:45:44;;;;;;;;;20.33;18.67;;;;;10.54;79.00;102519.00;5058404;28;45446;-50
2022/11/12 03:48:09;;;;;;;;;24.00;21.33;;;;;10.60;79.11;102531.88;5058107;28;45359;-49
2022/11/12 03:50:35;;;;;;;;;23.67;19.67;;;;;10.61;78.83;102537.09;5058697;28;45508;-47
2022/11/12 03:53:00;;;;;;;;;25.00;20.00;;;;;10.62;78.90;102535.28;5058408;28;45638;-51
2022/11/12 03:55:27;;;;;;;;;24.00;20.00;;;;;10.52;78.63;102516.44;5057769;28;45331;-50
2022/11/12 03:57:54;;;;;;;;;23.67;20.00;;;;;10.60;78.91;102527.41;5057590;28;45403;-49
2022/11/12 04:00:21;;;;;;;;;28.33;23.00;;;;;10.55;78.83;102537.53;5056910;28;45559;-51
2022/11/12 04:02:46;;;;;;;;;21.67;16.33;;;;;10.55;78.90;102529.53;5058112;28;45336;-49
2022/11/12 04:10:44;;;;;;;;;17.00;16.00;;;;;10.53;79.02;102550.06;5058049;28;45364;-49
2022/11/12 04:13:28;;;;;;;;;22.00;20.33;;;;;10.54;78.76;102549.13;5057975;28;45268;-51
2022/11/12 04:21:55;;;;;;;;;23.33;19.67;;;;;10.48;78.94;102553.03;5057785;28;45354;-53
2022/11/12 04:27:14;;;;;;;;;16.33;14.67;;;;;10.53;79.08;102557.19;5057684;28;45357;-50
2022/11/12 04:32:25;;;;;;;;;24.33;20.67;;;;;10.56;78.62;102554.34;5057701;28;45367;-49
2022/11/12 04:34:51;;;;;;;;;27.00;24.00;;;;;10.48;78.61;102536.22;5057500;28;45393;-52
2022/11/12 04:37:17;;;;;;;;;22.33;18.00;;;;;10.55;78.35;102542.00;5057577;28;45393;-52
2022/11/12 04:39:43;;;;;;;;;59.50;41.25;;;;;10.57;78.04;102543.56;5057473;28;45367;-50
2022/11/12 04:45:00;;;;;;;;;22.33;20.33;;;;;10.53;78.62;102536.75;5057517;28;45898;-52
2022/11/12 04:47:45;;;;;;;;;28.33;21.67;;;;;10.52;78.41;102536.88;5057300;28;45260;-49
2022/11/12 04:50:16;;;;;;;;;26.33;23.00;;;;;10.53;78.88;102546.53;5057171;28;45434;-52
2022/11/12 04:52:42;;;;;;;;;24.67;22.00;;;;;10.53;78.55;102541.22;5057594;28;45589;-52
2022/11/12 04:55:08;;;;;;;;;24.00;21.67;;;;;10.50;78.49;102539.63;5057352;28;45311;-48
2022/11/12 04:57:34;;;;;;;;;24.33;22.00;;;;;10.51;78.54;102543.16;5057511;28;45254;-51
2022/11/12 04:59:59;;;;;;;;;13.33;8.00;;;;;10.50;78.38;102547.63;5057557;28;45307;-48
2022/11/12 05:02:24;;;;;;;;;23.67;21.33;;;;;10.39;78.69;102548.31;5057587;28;45320;-49
2022/11/12 05:04:50;;;;;;;;;22.67;20.00;;;;;10.35;78.89;102536.19;5057255;28;46182;-48
2022/11/12 05:07:15;;;;;;;;;26.00;18.33;;;;;10.39;79.10;102547.47;5057042;28;45348;-49
2022/11/12 05:09:41;;;;;;;;;19.67;19.67;;;;;10.40;78.53;102541.19;5057190;28;45588;-54
2022/11/12 05:12:08;;;;;;;;;20.00;13.67;;;;;10.40;78.50;102541.19;5057690;28;45256;-47
2022/11/12 05:14:33;;;;;;;;;27.00;21.33;;;;;10.39;78.94;102542.16;5057115;28;45386;-49
2022/11/12 05:16:59;;;;;;;;;25.00;20.67;;;;;10.38;78.87;102548.44;5056965;28;45344;-50
2022/11/12 05:19:24;;;;;;;;;26.00;22.00;;;;;10.36;78.84;102548.50;5057451;28;45319;-50
2022/11/12 05:22:04;;;;;;;;;27.33;21.67;;;;;10.37;79.21;102550.25;5057287;28;45469;-51
2022/11/12 05:24:38;;;;;;;;;22.33;19.00;;;;;10.39;78.82;102555.44;5056799;28;45415;-52
2022/11/12 05:27:18;;;;;;;;;25.67;21.33;;;;;10.30;78.97;102540.94;5056944;28;45285;-49
2022/11/12 05:29:44;;;;;;;;;16.67;16.33;;;;;10.35;78.99;102543.31;5057041;28;45376;-51
2022/11/12 05:32:11;;;;;;;;;26.33;21.00;;;;;10.32;79.34;102541.69;5056971;28;45286;-48
2022/11/12 05:34:37;;;;;;;;;25.67;21.33;;;;;10.27;79.42;102540.28;5056599;28;46263;-52
2022/11/12 05:37:04;;;;;;;;;24.33;20.33;;;;;10.26;79.67;102543.91;5056608;28;45257;-51
2022/11/12 05:39:29;;;;;;;;;28.33;22.00;;;;;10.17;79.82;102532.03;5056773;28;45355;-49
2022/11/12 05:41:55;;;;;;;;;35.33;24.67;;;;;10.21;79.78;102544.19;5056978;28;45276;-47
2022/11/12 05:44:21;;;;;;;;;30.33;25.00;;;;;10.20;79.90;102540.69;5056370;28;46208;-48
2022/11/12 05:46:46;;;;;;;;;25.67;22.33;;;;;10.21;79.74;102533.53;5056378;28;45383;-51
2022/11/12 05:49:12;;;;;;;;;31.33;25.67;;;;;10.19;80.30;102532.78;5056870;28;45445;-49
2022/11/12 05:51:37;;;;;;;;;32.00;25.33;;;;;10.09;80.15;102511.25;5056677;28;45360;-50
2022/11/12 05:54:03;;;;;;;;;24.67;21.33;;;;;10.13;80.06;102518.09;5056438;28;46061;-48
2022/11/12 05:56:28;;;;;;;;;22.67;22.67;;;;;10.21;79.80;102531.75;5056342;28;45292;-49
2022/11/12 05:58:54;;;;;;;;;37.33;27.67;;;;;10.27;79.83;102542.97;5056573;28;45402;-49
2022/11/12 06:01:20;;;;;;;;;33.00;24.00;;;;;10.23;79.98;102545.78;5056767;28;45331;-49
2022/11/12 06:03:45;;;;;;;;;29.67;25.00;;;;;10.26;79.70;102549.25;5056449;28;45377;-51
2022/11/12 06:06:11;;;;;;;;;31.67;24.00;;;;;10.28;79.57;102549.97;5056630;28;45367;-52
2022/11/12 06:08:36;;;;;;;;;24.00;21.00;;;;;10.27;79.64;102561.56;5056543;28;45240;-49
2022/11/12 06:11:01;;;;;;;;;38.33;24.00;;;;;10.28;79.44;102555.28;5056823;28;45357;-50
2022/11/12 06:13:27;;;;;;;;;27.00;24.00;;;;;10.28;79.55;102555.28;5055981;28;46419;-53
2022/11/12 06:15:53;;;;;;;;;36.67;28.00;;;;;10.28;78.97;102558.84;5056142;28;45347;-48
2022/11/12 06:18:18;;;;;;;;;21.33;19.00;;;;;10.27;79.21;102558.91;5056432;28;45228;-52
2022/11/12 06:20:44;;;;;;;;;26.00;21.67;;;;;10.23;79.16;102552.91;5058962;28;45232;-48
2022/11/12 06:23:09;;;;;;;;;33.00;22.67;;;;;10.22;79.14;102556.53;5059579;28;45456;-50
2022/11/12 06:25:34;;;;;;;;;23.67;22.33;;;;;10.19;79.11;102552.25;5059700;28;45404;-48
2022/11/12 06:28:00;;;;;;;;;30.67;22.00;;;;;10.17;79.01;102551.50;5059798;28;45615;-52
2022/11/12 06:30:25;;;;;;;;;31.00;25.00;;;;;10.17;79.20;102556.81;5059793;28;45413;-48
2022/11/12 06:32:51;;;;;;;;;28.33;25.00;;;;;10.10;79.28;102554.66;5059499;28;45944;-50
2022/11/12 06:35:17;;;;;;;;;30.33;22.33;;;;;10.11;79.24;102551.03;5059638;28;45430;-52
2022/11/12 06:37:46;;;;;;;;;32.33;23.67;;;;;10.12;79.09;102558.94;5059547;28;45422;-52
2022/11/12 06:40:12;;;;;;;;;29.33;19.33;;;;;10.09;78.85;102551.16;5059776;28;45430;-51
2022/11/12 06:42:38;;;;;;;;;18.67;16.00;;;;;10.05;78.79;102557.63;5059225;28;47113;-50
2022/11/12 06:45:04;;;;;;;;;19.33;15.67;;;;;10.00;79.31;102557.91;5059263;28;45692;-50
2022/11/12 06:47:29;;;;;;;;;28.33;20.33;;;;;9.91;79.40;102561.16;5059223;28;45389;-51
2022/11/12 06:49:54;;;;;;;;;24.00;19.00;;;;;9.94;79.48;102560.97;5059664;28;45261;-47
2022/11/12 06:52:19;;;;;;;;;26.00;17.33;;;;;9.96;78.83;102563.53;5059027;28;45361;-49
2022/11/12 06:54:45;;;;;;;;;17.67;15.67;;;;;10.00;78.91;102567.69;5059252;28;45308;-50
2022/11/12 06:57:10;;;;;;;;;25.00;21.00;;;;;10.00;78.61;102565.03;5058909;28;45572;-52
2022/11/12 06:59:36;;;;;;;;;23.67;21.33;;;;;10.00;78.55;102568.56;5059458;28;45298;-52
2022/11/12 07:02:01;;;;;;;;;21.33;18.00;;;;;9.98;79.04;102570.44;5059189;28;46191;-53
2022/11/12 07:04:26;;;;;;;;;20.00;18.00;;;;;9.98;78.99;102574.91;5059098;28;45260;-48
2022/11/12 07:06:52;;;;;;;;;28.00;19.67;;;;;9.96;79.07;102574.16;5059107;28;45318;-49
2022/11/12 07:09:17;;;;;;;;;27.00;22.33;;;;;9.95;78.99;102570.66;5059158;28;45406;-52
2022/11/12 07:11:43;;;;;;;;;23.33;16.67;;;;;9.96;79.01;102579.47;5058938;28;46012;-47
2022/11/12 07:14:08;;;;;;;;;25.00;19.67;;;;;9.97;79.02;102574.06;5058851;28;45463;-51
2022/11/12 07:16:34;;;;;;;;;23.00;21.00;;;;;10.00;78.50;102565.03;5058809;28;45300;-51
2022/11/12 07:18:59;;;;;;;;;33.00;22.00;;;;;9.97;78.83;102562.56;5059059;28;45415;-49
2022/11/12 07:21:25;;;;;;;;;28.00;20.67;;;;;10.00;79.13;102575.69;5058401;28;46098;-50
2022/11/12 07:23:50;;;;;;;;;20.00;17.67;;;;;10.00;78.65;102575.69;5058677;28;45385;-52
2022/11/12 07:26:19;;;;;;;;;30.67;22.00;;;;;9.93;78.64;102571.69;5058771;28;45388;-50
2022/11/12 07:28:45;;;;;;;;;19.00;16.67;;;;;9.94;78.81;102570.72;5058967;28;45308;-48
2022/11/12 07:31:13;;;;;;;;;26.67;23.00;;;;;9.96;78.50;102574.16;5058090;28;45314;-48
2022/11/12 07:33:38;;;;;;;;;21.67;21.00;;;;;9.93;78.56;102591.16;5058289;28;45322;-52
2022/11/12 07:36:08;;;;;;;;;25.00;18.67;;;;;9.90;78.32;102591.38;5058383;28;45282;-48
2022/11/12 07:38:35;;;;;;;;;28.67;25.00;;;;;9.86;78.54;102595.16;5058680;28;45315;-50
2022/11/12 07:41:04;;;;;;;;;23.33;21.00;;;;;9.92;78.65;102605.41;5058193;28;47427;-51
2022/11/12 07:43:31;;;;;;;;;22.33;20.67;;;;;9.95;78.43;102593.75;5058129;28;45326;-53
2022/11/12 07:45:58;;;;;;;;;29.33;22.00;;;;;10.03;78.45;102596.75;5058227;28;45366;-53
2022/11/12 07:48:23;;;;;;;;;23.33;18.33;;;;;10.05;78.21;102591.34;5058116;28;45264;-50
2022/11/12 07:50:49;;;;;;;;;28.67;19.00;;;;;10.06;78.57;102585.91;5057355;28;45983;-50
2022/11/12 07:53:14;;;;;;;;;21.67;13.33;;;;;10.11;78.16;102598.91;5057845;28;45349;-50
2022/11/12 07:55:39;;;;;;;;;24.33;19.67;;;;;10.14;78.31;102593.41;5056890;28;45340;-53
2022/11/12 07:58:04;;;;;;;;;24.67;20.33;;;;;10.12;78.34;102590.84;5058287;28;45704;-48
2022/11/12 08:00:30;;;;;;;;;21.33;20.67;;;;;10.18;78.18;102609.06;5057705;28;46071;-47
2022/11/12 08:03:00;;;;;;;;;21.33;17.00;;;;;10.19;78.59;102601.94;5057998;28;45329;-48
2022/11/12 08:05:25;;;;;;;;;26.00;18.00;;;;;10.26;78.33;102607.75;5057921;28;45446;-50
2022/11/12 08:07:51;;;;;;;;;25.33;20.67;;;;;10.30;78.43;102610.13;5057889;28;45893;-49
2022/11/12 08:10:16;;;;;;;;;29.67;21.33;;;;;10.36;78.24;102607.03;5057732;28;45982;-50
2022/11/12 08:12:41;;;;;;;;;22.33;17.67;;;;;10.42;78.22;102606.66;5057952;28;45323;-48
2022/11/12 08:15:07;;;;;;;;;26.00;21.33;;;;;10.47;77.72;102614.34;5057688;28;45332;-47
2022/11/12 08:17:37;;;;;;;;;28.33;21.67;;;;;10.52;77.66;102620.19;5057942;28;45568;-51
2022/11/12 08:20:02;;;;;;;;;29.67;23.00;;;;;10.55;77.77;102624.47;5057459;28;47523;-51
2022/11/12 08:22:28;;;;;;;;;24.33;20.33;;;;;10.55;77.70;102625.34;5057298;28;45462;-50
2022/11/12 08:24:53;;;;;;;;;23.00;20.33;;;;;10.59;77.64;102620.66;5056612;28;45383;-51
2022/11/12 08:27:18;;;;;;;;;25.67;21.67;;;;;10.62;77.64;102624.00;5057737;28;45423;-53
2022/11/12 08:29:44;;;;;;;;;37.00;29.33;;;;;10.69;77.72;102627.94;5057418;28;46099;-51
2022/11/12 08:32:09;;;;;;;;;28.00;21.33;;;;;10.72;77.72;102626.88;5057513;28;45520;-52
2022/11/12 08:34:40;;;;;;;;;26.33;18.00;;;;;10.73;77.66;102618.78;5057564;28;45311;-52
2022/11/12 08:37:05;;;;;;;;;27.33;23.00;;;;;10.83;77.29;102624.38;5057346;28;45227;-53
2022/11/12 08:39:30;;;;;;;;;24.33;20.00;;;;;10.81;77.24;102636.06;5056985;28;47350;-52
2022/11/12 08:41:56;;;;;;;;;23.67;21.33;;;;;10.84;77.43;102635.88;5057067;28;45266;-51
2022/11/12 08:44:21;;;;;;;;;30.67;26.33;;;;;10.90;77.66;102630.97;5057043;28;45264;-48
2022/11/12 08:46:46;;;;;;;;;24.33;20.00;;;;;10.94;77.12;102621.81;5057394;28;45453;-49
2022/11/12 08:49:12;;;;;;;;;25.33;24.33;;;;;10.98;77.18;102638.44;5057164;28;45322;-51
2022/11/12 08:51:37;;;;;;;;;30.33;26.33;;;;;11.08;76.82;102636.00;5056935;28;45289;-52
2022/11/12 08:54:02;;;;;;;;;33.33;25.00;;;;;11.14;76.86;102635.63;5057194;28;45435;-52
2022/11/12 08:56:28;;;;;;;;;30.00;22.33;;;;;11.17;76.79;102628.28;5057303;28;45521;-54
2022/11/12 08:58:53;;;;;;;;;36.00;26.33;;;;;11.23;76.43;102629.66;5057021;28;46028;-50
2022/11/12 09:01:18;;;;;;;;;29.00;23.33;;;;;11.33;76.56;102622.72;5056823;28;45431;-45
2022/11/12 09:03:44;;;;;;;;;31.00;25.67;;;;;11.47;76.17;102619.13;5057401;28;45486;-54
2022/11/12 09:06:09;;;;;;;;;29.67;27.67;;;;;11.68;75.56;102601.63;5057090;28;45549;-52
2022/11/12 09:08:35;;;;;;;;;32.67;25.67;;;;;12.09;74.24;102608.50;5056518;28;47079;-53
2022/11/12 09:11:01;;;;;;;;;27.67;23.67;;;;;12.45;73.44;102612.13;5056867;28;45308;-54
2022/11/12 09:13:26;;;;;;;;;26.00;20.67;;;;;12.93;72.40;102614.75;5056853;28;45403;-53
2022/11/12 09:15:52;;;;;;;;;33.33;24.67;;;;;13.25;70.90;102612.31;5057070;28;45490;-48
2022/11/12 09:18:17;;;;;;;;;32.67;25.00;;;;;13.51;69.57;102620.97;5056602;28;45278;-53
2022/11/12 09:20:43;;;;;;;;;23.33;21.00;;;;;13.71;68.46;102609.56;5056751;28;45360;-53
2022/11/12 09:23:11;;;;;;;;;26.67;24.00;;;;;13.97;67.89;102614.66;5056929;28;45206;-54
2022/11/12 09:25:38;;;;;;;;;27.00;20.00;;;;;14.17;67.35;102611.25;5055335;28;45355;-54
2022/11/12 09:28:10;;;;;;;;;30.33;24.67;;;;;14.30;66.17;102615.59;5056428;28;45448;-52
2022/11/12 09:30:40;;;;;;;;;30.67;25.67;;;;;14.44;66.36;102607.28;5055231;28;45438;-53
2022/11/12 09:33:05;;;;;;;;;30.67;22.33;;;;;14.59;65.53;102606.03;5056553;28;45344;-45
2022/11/12 09:35:30;;;;;;;;;27.33;24.67;;;;;14.69;65.23;102601.59;5056610;28;45493;-54
2022/11/12 09:37:57;;;;;;;;;32.67;24.33;;;;;14.88;65.02;102592.88;5056554;28;45929;-53
2022/11/12 09:40:36;;;;;;;;;30.67;27.33;;;;;15.07;64.95;102604.72;5056372;28;45405;-47
2022/11/12 09:43:11;;;;;;;;;26.67;23.33;;;;;15.31;64.18;102602.63;5056414;28;45384;-51
2022/11/12 09:45:37;;;;;;;;;28.00;22.00;;;;;15.56;62.88;102595.97;5056776;28;45379;-50
2022/11/12 09:48:09;;;;;;;;;19.67;18.67;;;;;15.68;62.79;102600.31;5055851;28;47137;-52
2022/11/12 09:50:48;;;;;;;;;24.00;21.67;;;;;15.74;63.07;102598.91;5056217;28;45346;-51
2022/11/12 09:53:36;;;;;;;;;25.00;21.67;;;;;15.85;62.24;102601.50;5056084;28;45348;-49
2022/11/12 09:56:06;;;;;;;;;19.00;17.33;;;;;16.02;62.09;102597.31;5059005;28;45244;-51
2022/11/12 09:58:31;;;;;;;;;42.33;33.33;;;;;16.17;61.52;102612.03;5059717;28;46246;-46
2022/11/12 10:01:06;;;;;;;;;25.33;16.67;;;;;16.16;61.58;102609.50;5059528;28;45431;-53
2022/11/12 10:03:43;;;;;;;;;29.33;21.00;;;;;16.01;61.79;102600.94;5059862;28;45384;-52
2022/11/12 10:06:17;;;;;;;;;25.00;21.33;;;;;15.94;61.75;102615.94;5060055;28;45291;-48
2022/11/12 10:08:59;;;;;;;;;18.67;17.67;;;;;15.89;62.00;102610.13;5059471;28;46255;-54
2022/11/12 10:12:30;;;;;;;;;23.33;21.00;;;;;15.94;62.13;102606.03;5059495;28;45420;-49
2022/11/12 10:14:35;;;;;;;;;29.67;21.33;;;;;15.84;62.01;102615.03;5059605;28;45270;-52
2022/11/12 10:17:30;;;;;;;;;23.67;20.00;;;;;15.72;62.04;102616.97;5059859;28;45443;-51
2022/11/12 10:20:14;;;;;;;;;29.00;21.33;;;;;15.68;62.68;102610.19;5059495;28;47101;-49
2022/11/12 10:22:53;;;;;;;;;27.33;23.33;;;;;15.58;62.46;102617.28;5059354;28;45383;-51
2022/11/12 10:25:19;;;;;;;;;25.67;21.00;;;;;15.80;62.49;102613.59;5059303;28;45184;-50
2022/11/12 10:27:45;;;;;;;;;28.33;24.67;;;;;16.07;61.58;102607.63;5059523;28;45673;-50
2022/11/12 10:30:16;;;;;;;;;28.00;26.33;;;;;16.09;61.35;102606.50;5059267;28;46180;-48
2022/11/12 10:32:44;;;;;;;;;29.00;24.67;;;;;15.99;61.25;102612.84;5059036;28;45448;-48
2022/11/12 10:35:11;;;;;;;;;25.67;21.00;;;;;15.89;61.72;102602.06;5059402;28;45405;-49
2022/11/12 10:38:04;;;;;;;;;42.00;28.00;;;;;15.92;62.20;102605.31;5059475;28;45401;-50
2022/11/12 10:40:41;;;;;;;;;27.33;25.67;;;;;15.91;61.92;102590.19;5059007;28;46177;-46
2022/11/12 10:43:15;;;;;;;;;34.33;29.00;;;;;15.94;61.75;102587.25;5059119;28;45271;-51
2022/11/12 10:45:46;;;;;;;;;37.67;28.00;;;;;15.92;61.86;102575.78;5058944;28;45271;-47
2022/11/12 10:48:32;;;;;;;;;30.33;25.00;;;;;15.98;62.05;102587.84;5059059;28;45496;-48
2022/11/12 10:50:59;;;;;;;;;34.67;31.33;;;;;16.00;61.81;102585.84;5058743;28;46233;-49
2022/11/12 10:53:42;;;;;;;;;31.67;30.00;;;;;16.06;62.20;102589.84;5058659;28;45476;-52
2022/11/12 10:56:24;;;;;;;;;30.00;27.33;;;;;16.00;61.80;102583.16;5058805;28;45216;-47
2022/11/12 10:59:10;;;;;;;;;38.00;28.67;;;;;15.92;62.07;102575.78;5059211;28;45422;-46
2022/11/12 11:01:35;;;;;;;;;33.67;28.67;;;;;15.95;62.17;102567.47;5058343;28;46068;-50
2022/11/12 11:04:01;;;;;;;;;40.00;33.33;;;;;16.04;61.94;102567.63;5058571;28;45414;-47
2022/11/12 11:06:26;;;;;;;;;36.33;30.67;;;;;15.91;61.85;102544.56;5058290;28;45386;-49
2022/11/12 11:09:06;;;;;;;;;34.33;29.67;;;;;16.09;62.18;102560.84;5058993;28;45324;-48
2022/11/12 11:11:32;;;;;;;;;38.00;31.33;;;;;16.20;61.93;102550.00;5058624;28;46316;-47
2022/11/12 11:14:20;;;;;;;;;38.67;33.67;;;;;16.58;61.50;102561.75;5058146;27;45473;-49
2022/11/12 11:16:50;;;;;;;;;36.67;31.67;;;;;16.58;61.07;102556.38;5058635;28;45307;-51
2022/11/12 11:19:15;;;;;;;;;38.00;32.67;;;;;16.66;60.92;102540.41;5058709;28;45463;-52
2022/11/12 11:21:49;;;;;;;;;46.00;38.33;;;;;16.78;60.92;102541.13;5058372;28;46084;-51
2022/11/12 11:24:18;;;;;;;;;43.67;36.33;;;;;16.95;60.39;102540.38;5057951;28;45530;-51
2022/11/12 11:26:59;;;;;;;;;41.33;33.00;;;;;17.10;59.83;102547.97;5058368;28;45355;-49
2022/11/12 11:29:33;;;;;;;;;35.67;31.00;;;;;17.31;59.46;102539.72;5058368;28;45241;-50
2022/11/12 11:32:20;;;;;;;;;42.00;33.33;;;;;17.39;59.04;102519.16;5058375;28;46016;-53
2022/11/12 11:35:13;;;;;;;;;44.67;33.00;;;;;17.65;58.56;102531.91;5058267;28;45225;-51